Time;durP1;ratioP1;P1;durP2;ratioP2;P2;SDS_P1;SDS_P2;PMS_P1;PMS_P2;Temp;Humidity;BMP_temperature;BMP_pressure;BME280_temperature;BME280_humidity;BME280_pressure;Samples;Min_cycle;Max_cycle;Signal;HPM_P1;HPM_P2
2022/02/13 00:02:07;;;;;;;28.33;26.40;;;0.90;81.60;;;;;;5092171;28;20229;-71
2022/02/13 00:04:36;;;;;;;28.63;26.23;;;0.90;81.40;;;;;;5092090;28;20595;-71
2022/02/13 00:07:03;;;;;;;30.67;28.27;;;1.00;81.20;;;;;;5092522;28;20624;-71
2022/02/13 00:09:31;;;;;;;28.83;26.83;;;1.00;81.30;;;;;;5092077;28;20295;-71
2022/02/13 00:12:00;;;;;;;30.45;28.17;;;0.90;81.40;;;;;;5092151;28;20213;-71
2022/02/13 00:14:28;;;;;;;29.83;27.67;;;0.80;82.40;;;;;;5092102;28;20196;-71
2022/02/13 00:16:55;;;;;;;29.40;27.02;;;0.70;82.80;;;;;;5092779;28;20198;-71
2022/02/13 00:19:22;;;;;;;27.92;25.95;;;0.80;83.30;;;;;;5095908;28;20659;-71
2022/02/13 00:21:51;;;;;;;29.70;27.60;;;0.80;83.00;;;;;;5095711;28;20228;-71
2022/02/13 00:24:18;;;;;;;30.08;27.58;;;0.80;82.70;;;;;;5095842;28;20228;-71
2022/02/13 00:26:46;;;;;;;28.00;25.75;;;0.80;87.00;;;;;;5095806;28;20208;-71
2022/02/13 00:29:12;;;;;;;29.67;27.38;;;0.80;84.40;;;;;;5095523;28;20210;-71
2022/02/13 00:31:39;;;;;;;28.90;26.42;;;0.80;86.10;;;;;;5095671;28;20275;-71
2022/02/13 00:34:06;;;;;;;27.45;25.65;;;0.70;86.10;;;;;;5095766;28;20298;-71
2022/02/13 00:36:33;;;;;;;28.42;26.33;;;0.80;85.30;;;;;;5095791;28;20199;-71
2022/02/13 00:39:01;;;;;;;36.05;27.40;;;0.70;88.10;;;;;;5095722;28;20198;-71
2022/02/13 00:41:28;;;;;;;31.38;28.27;;;0.80;89.90;;;;;;5095352;28;20303;-71
2022/02/13 00:43:55;;;;;;;45.50;29.15;;;0.80;87.70;;;;;;5095407;28;20654;-71
2022/02/13 00:46:23;;;;;;;27.20;25.25;;;0.80;87.50;;;;;;5095473;28;20208;-71
2022/02/13 00:48:50;;;;;;;28.10;25.65;;;0.90;90.30;;;;;;5095421;28;20250;-71
2022/02/13 00:51:16;;;;;;;28.05;25.67;;;0.90;92.00;;;;;;5095358;28;20214;-71
2022/02/13 00:53:43;;;;;;;27.40;25.25;;;0.90;91.80;;;;;;5095457;28;20200;-71
2022/02/13 00:56:12;;;;;;;27.88;25.83;;;0.90;89.60;;;;;;5095251;28;20647;-71
2022/02/13 00:58:39;;;;;;;26.92;25.02;;;0.80;88.30;;;;;;5095410;28;20267;-71
2022/02/13 01:01:06;;;;;;;26.95;25.00;;;0.80;86.30;;;;;;5095137;28;20215;-71
2022/02/13 01:03:34;;;;;;;27.55;25.58;;;0.70;85.40;;;;;;5095154;28;20590;-71
2022/02/13 01:06:01;;;;;;;27.30;25.10;;;0.80;85.00;;;;;;5094883;28;20298;-71
2022/02/13 01:08:28;;;;;;;26.95;25.35;;;0.80;87.20;;;;;;5095143;28;20241;-71
2022/02/13 01:10:55;;;;;;;28.98;26.98;;;0.90;85.80;;;;;;5094715;28;20221;-71
2022/02/13 01:13:24;;;;;;;27.42;25.33;;;0.90;85.30;;;;;;5094981;28;20659;-71
2022/02/13 01:15:50;;;;;;;29.33;27.02;;;0.90;84.10;;;;;;5095150;28;20285;-71
2022/02/13 01:18:17;;;;;;;28.83;26.67;;;0.90;85.00;;;;;;5094752;28;20202;-71
2022/02/13 01:20:44;;;;;;;29.33;27.33;;;0.80;84.50;;;;;;5094514;28;20222;-71
2022/02/13 01:23:11;;;;;;;28.58;26.48;;;0.90;83.90;;;;;;5094769;28;20538;-71
2022/02/13 01:25:38;;;;;;;28.15;26.25;;;0.90;82.90;;;;;;5094420;28;20308;-71
2022/02/13 01:28:06;;;;;;;28.52;26.73;;;0.90;82.70;;;;;;5094615;28;20206;-71
2022/02/13 01:30:34;;;;;;;27.77;25.77;;;0.90;82.90;;;;;;5093865;28;20221;-71
2022/02/13 01:33:01;;;;;;;26.55;24.83;;;0.90;83.60;;;;;;5094760;28;20291;-71
2022/02/13 01:35:28;;;;;;;28.25;26.27;;;0.90;83.50;;;;;;5094680;28;20340;-71
2022/02/13 01:37:55;;;;;;;28.10;25.77;;;0.90;83.20;;;;;;5094418;28;20574;-71
2022/02/13 01:40:22;;;;;;;27.88;26.00;;;0.90;83.00;;;;;;5094160;28;20222;-71
2022/02/13 01:42:49;;;;;;;28.05;26.25;;;0.90;83.00;;;;;;5094516;28;20197;-71
2022/02/13 01:45:16;;;;;;;28.98;26.98;;;0.90;83.30;;;;;;5094355;28;20215;-71
2022/02/13 01:47:44;;;;;;;27.27;25.48;;;1.00;82.90;;;;;;5094248;28;20292;-71
2022/02/13 01:50:11;;;;;;;27.75;25.85;;;1.00;82.50;;;;;;5094036;28;20205;-71
2022/02/13 01:52:42;;;;;;;29.02;26.92;;;1.00;82.20;;;;;;5094310;28;20203;-71
2022/02/13 01:55:10;;;;;;;27.63;25.63;;;1.00;82.40;;;;;;5094244;28;20281;-71
2022/02/13 01:57:38;;;;;;;27.27;25.45;;;1.00;82.70;;;;;;5094123;28;20201;-71
2022/02/13 02:00:07;;;;;;;28.60;26.50;;;1.00;83.00;;;;;;5093877;28;20248;-71
2022/02/13 02:02:33;;;;;;;27.15;25.35;;;1.10;83.10;;;;;;5093964;28;20232;-71
2022/02/13 02:05:03;;;;;;;28.58;26.23;;;1.10;85.10;;;;;;5093696;28;20308;-71
2022/02/13 02:07:29;;;;;;;28.58;26.30;;;1.10;84.20;;;;;;5093962;28;20204;-71
2022/02/13 02:09:56;;;;;;;27.05;25.20;;;1.10;83.60;;;;;;5093695;28;20204;-71
2022/02/13 02:12:25;;;;;;;26.17;24.38;;;1.10;83.10;;;;;;5093846;28;20198;-71
2022/02/13 02:14:52;;;;;;;29.27;27.10;;;1.10;82.80;;;;;;5093810;28;20719;-71
2022/02/13 02:17:19;;;;;;;27.15;25.35;;;1.10;83.00;;;;;;5093793;28;20194;-71
2022/02/13 02:19:46;;;;;;;27.67;25.85;;;1.10;83.80;;;;;;5093561;28;20212;-71
2022/02/13 02:22:16;;;;;;;29.38;27.17;;;1.20;83.70;;;;;;5093437;28;20217;-72
2022/02/13 02:24:46;;;;;;;27.23;25.40;;;1.20;86.50;;;;;;5093630;28;20226;-71
2022/02/13 02:27:13;;;;;;;27.10;25.13;;;1.20;85.00;;;;;;5093497;28;20201;-71
2022/02/13 02:29:40;;;;;;;27.00;25.08;;;1.30;83.80;;;;;;5093292;28;20198;-71
2022/02/13 02:32:10;;;;;;;27.42;25.55;;;1.20;84.90;;;;;;5093313;28;20216;-71
2022/02/13 02:34:38;;;;;;;27.73;25.90;;;1.30;83.90;;;;;;5093620;28;20606;-71
2022/02/13 02:37:06;;;;;;;27.13;25.00;;;1.30;86.50;;;;;;5093441;28;20202;-71
2022/02/13 02:39:33;;;;;;;28.75;26.63;;;1.20;83.90;;;;;;5093163;28;20235;-71
2022/02/13 02:42:01;;;;;;;28.80;26.70;;;1.30;83.00;;;;;;5093153;28;20766;-71
2022/02/13 02:44:28;;;;;;;28.85;26.75;;;1.30;82.70;;;;;;5093118;28;20588;-71
2022/02/13 02:46:55;;;;;;;27.30;25.38;;;1.30;83.60;;;;;;5093125;28;20233;-71
2022/02/13 02:49:22;;;;;;;27.30;25.30;;;1.20;82.60;;;;;;5092999;28;20203;-71
2022/02/13 02:51:49;;;;;;;27.92;25.98;;;1.20;83.50;;;;;;5093178;28;20636;-71
2022/02/13 02:54:16;;;;;;;27.65;25.75;;;1.20;85.00;;;;;;5093088;28;20285;-71
2022/02/13 02:56:43;;;;;;;26.40;24.20;;;1.30;84.70;;;;;;5093118;28;20247;-71
2022/02/13 02:59:11;;;;;;;28.10;26.00;;;1.20;83.80;;;;;;5092807;28;20202;-71
2022/02/13 03:01:38;;;;;;;28.00;25.70;;;1.30;83.40;;;;;;5092782;28;20303;-71
2022/02/13 03:04:05;;;;;;;27.10;25.27;;;1.40;82.90;;;;;;5092920;28;20202;-71
2022/02/13 03:06:32;;;;;;;26.77;24.77;;;1.30;83.20;;;;;;5092834;28;20694;-71
2022/02/13 03:09:00;;;;;;;26.55;24.75;;;1.40;82.90;;;;;;5092919;28;20276;-71
2022/02/13 03:11:28;;;;;;;27.52;25.42;;;1.40;82.30;;;;;;5092660;28;20253;-71
2022/02/13 03:13:55;;;;;;;27.05;25.13;;;1.40;82.20;;;;;;5092736;28;20196;-71
2022/02/13 03:16:23;;;;;;;27.63;25.67;;;1.40;82.20;;;;;;5092834;28;20655;-71
2022/02/13 03:18:50;;;;;;;26.60;24.80;;;1.50;82.00;;;;;;5092814;28;20198;-70
2022/02/13 03:21:17;;;;;;;27.60;25.58;;;1.30;82.50;;;;;;5092666;28;20222;-70
2022/02/13 03:23:44;;;;;;;28.33;26.38;;;1.40;82.60;;;;;;5093142;28;20566;-71
2022/02/13 03:26:11;;;;;;;26.83;25.10;;;1.40;82.40;;;;;;5092511;28;20309;-70
2022/02/13 03:28:38;;;;;;;26.48;24.55;;;1.40;82.80;;;;;;5092497;28;20202;-71
2022/02/13 03:31:05;;;;;;;25.88;24.10;;;1.50;83.20;;;;;;5092420;28;20304;-71
2022/02/13 03:33:33;;;;;;;27.88;26.00;;;1.60;82.20;;;;;;5092662;28;20286;-71
2022/02/13 03:36:00;;;;;;;27.60;25.60;;;1.70;81.70;;;;;;5092589;28;20205;-71
2022/02/13 03:38:27;;;;;;;28.52;26.45;;;1.60;82.00;;;;;;5092661;28;20199;-71
2022/02/13 03:40:54;;;;;;;27.65;25.38;;;1.60;82.40;;;;;;5092236;28;20220;-70
2022/02/13 03:43:21;;;;;;;27.25;25.27;;;1.60;82.10;;;;;;5092402;28;20294;-71
2022/02/13 03:45:47;;;;;;;26.00;24.30;;;1.60;81.90;;;;;;5092453;28;20224;-71
2022/02/13 03:48:14;;;;;;;26.65;24.77;;;1.60;82.10;;;;;;5092403;28;20205;-71
2022/02/13 03:50:43;;;;;;;27.48;25.60;;;1.60;81.90;;;;;;5092430;28;20561;-71
2022/02/13 03:53:09;;;;;;;25.58;23.90;;;1.60;82.10;;;;;;5095200;28;20641;-71
2022/02/13 03:55:36;;;;;;;26.67;24.75;;;1.60;82.50;;;;;;5096421;28;20285;-71
2022/02/13 03:58:03;;;;;;;26.83;24.92;;;1.60;82.90;;;;;;5096428;28;20202;-71
2022/02/13 04:00:30;;;;;;;27.60;25.40;;;1.70;82.50;;;;;;5096269;28;20598;-71
2022/02/13 04:02:57;;;;;;;27.20;25.30;;;1.80;83.10;;;;;;5096727;28;20224;-71
2022/02/13 04:05:25;;;;;;;26.58;24.67;;;1.90;82.80;;;;;;5096120;28;20586;-71
2022/02/13 04:07:53;;;;;;;27.15;25.15;;;1.90;82.50;;;;;;5096304;28;20681;-71
2022/02/13 04:10:20;;;;;;;25.75;23.95;;;2.00;82.20;;;;;;5095909;28;20215;-71
2022/02/13 04:12:47;;;;;;;26.73;24.85;;;2.00;82.00;;;;;;5096339;28;20279;-71
2022/02/13 04:15:14;;;;;;;26.67;24.83;;;2.00;82.00;;;;;;5096222;28;20198;-71
2022/02/13 04:17:41;;;;;;;26.83;24.83;;;2.00;81.90;;;;;;5096078;28;20607;-71
2022/02/13 04:20:10;;;;;;;26.63;24.85;;;2.00;83.00;;;;;;5095904;28;20285;-71
2022/02/13 04:22:37;;;;;;;26.52;24.77;;;2.00;83.10;;;;;;5095757;28;20208;-71
2022/02/13 04:25:06;;;;;;;25.90;24.20;;;2.00;82.40;;;;;;5095863;28;20314;-71
2022/02/13 04:27:34;;;;;;;26.80;25.00;;;2.00;82.00;;;;;;5095728;28;20208;-71
2022/02/13 04:30:01;;;;;;;26.73;24.63;;;2.00;81.80;;;;;;5095605;28;20256;-71
2022/02/13 04:32:28;;;;;;;27.15;25.35;;;2.00;81.40;;;;;;5095828;28;20204;-71
2022/02/13 04:34:55;;;;;;;26.83;24.88;;;2.00;81.40;;;;;;5095718;28;20198;-71
2022/02/13 04:37:22;;;;;;;25.50;23.80;;;2.00;81.40;;;;;;5095725;28;20204;-71
2022/02/13 04:39:49;;;;;;;27.27;25.38;;;1.90;81.90;;;;;;5095548;28;20199;-71
2022/02/13 04:42:17;;;;;;;25.20;23.50;;;1.70;82.30;;;;;;5095714;28;20250;-71
2022/02/13 04:44:45;;;;;;;25.65;23.95;;;1.70;83.10;;;;;;5095620;28;20219;-71
2022/02/13 04:47:11;;;;;;;25.58;23.77;;;1.60;83.60;;;;;;5095574;28;20238;-71
2022/02/13 04:49:39;;;;;;;26.17;24.48;;;1.60;84.30;;;;;;5095262;28;20283;-71
2022/02/13 04:52:06;;;;;;;25.35;23.65;;;1.70;83.50;;;;;;5095436;28;20223;-71
2022/02/13 04:54:33;;;;;;;26.90;25.08;;;1.60;83.70;;;;;;5095392;28;20286;-71
2022/02/13 04:57:01;;;;;;;26.92;25.15;;;1.60;83.60;;;;;;5095384;28;20653;-71
2022/02/13 04:59:33;;;;;;;26.40;24.55;;;1.70;83.40;;;;;;5095244;28;20295;-71
2022/02/13 05:02:00;;;;;;;25.50;23.58;;;1.70;83.50;;;;;;5095129;28;20261;-71
2022/02/13 05:04:27;;;;;;;26.60;24.80;;;1.70;83.60;;;;;;5093863;28;20197;-71
2022/02/13 05:06:54;;;;;;;26.77;25.05;;;1.60;83.30;;;;;;5094993;28;20234;-71
2022/02/13 05:09:21;;;;;;;25.40;23.70;;;1.60;84.10;;;;;;5094927;28;20220;-71
2022/02/13 05:11:48;;;;;;;25.67;24.08;;;1.60;83.80;;;;;;5095109;28;20298;-71
2022/02/13 05:14:15;;;;;;;25.33;23.73;;;1.70;83.90;;;;;;5095157;28;20205;-71
2022/02/13 05:16:43;;;;;;;25.33;23.63;;;1.70;83.60;;;;;;5095067;28;20208;-71
2022/02/13 05:19:10;;;;;;;26.92;24.83;;;1.70;83.20;;;;;;5094823;28;20571;-71
2022/02/13 05:21:37;;;;;;;25.40;23.77;;;1.70;82.90;;;;;;5094556;28;20699;-71
2022/02/13 05:24:04;;;;;;;24.77;23.05;;;1.70;83.00;;;;;;5094831;28;20258;-71
2022/02/13 05:26:31;;;;;;;25.70;24.10;;;1.60;84.80;;;;;;5094590;28;20222;-71
2022/02/13 05:28:58;;;;;;;26.52;24.73;;;1.60;84.10;;;;;;5094663;28;20202;-71
2022/02/13 05:31:29;;;;;;;26.17;23.95;;;1.50;84.50;;;;;;5094527;28;20222;-71
2022/02/13 05:33:58;;;;;;;26.70;24.80;;;1.40;85.50;;;;;;5094561;28;20675;-71
2022/02/13 05:36:26;;;;;;;27.63;25.63;;;1.40;85.60;;;;;;5094634;28;20202;-71
2022/02/13 05:38:53;;;;;;;26.10;24.33;;;1.40;86.40;;;;;;5089137;22;20260;-71
2022/02/13 05:41:21;;;;;;;29.85;25.15;;;1.40;86.40;;;;;;5034141;28;20232;-70
2022/02/13 05:43:48;;;;;;;25.92;24.13;;;1.40;87.10;;;;;;5034268;28;20223;-71
2022/02/13 05:46:15;;;;;;;25.98;24.27;;;1.40;87.80;;;;;;5034218;28;20319;-71
2022/02/13 05:48:45;;;;;;;26.13;23.77;;;1.40;88.80;;;;;;5034182;28;20280;-71
2022/02/13 05:51:14;;;;;;;25.85;23.95;;;1.40;88.20;;;;;;5034033;28;20224;-71
2022/02/13 05:53:40;;;;;;;24.85;23.10;;;1.50;88.00;;;;;;5034091;28;20236;-71
2022/02/13 05:56:08;;;;;;;26.05;24.08;;;1.50;90.90;;;;;;5034098;28;20224;-71
2022/02/13 05:58:39;;;;;;;24.27;22.48;;;1.60;90.10;;;;;;5033995;28;20203;-71
2022/02/13 06:01:05;;;;;;;24.25;22.63;;;1.70;88.50;;;;;;5033903;28;20307;-71
2022/02/13 06:03:32;;;;;;;24.67;22.98;;;1.70;87.50;;;;;;5033990;28;20238;-71
2022/02/13 06:05:59;;;;;;;24.77;23.02;;;1.80;87.00;;;;;;5033725;28;20226;-71
2022/02/13 06:08:28;;;;;;;23.65;21.95;;;1.90;86.90;;;;;;5034037;28;20208;-71
2022/02/13 06:10:55;;;;;;;24.67;22.98;;;1.90;86.40;;;;;;5033558;28;20232;-71
2022/02/13 06:13:22;;;;;;;24.48;22.98;;;1.90;85.60;;;;;;5033978;28;20205;-71
2022/02/13 06:15:49;;;;;;;24.25;22.65;;;2.00;85.90;;;;;;5033284;28;20194;-71
2022/02/13 06:18:16;;;;;;;23.55;22.15;;;2.10;85.00;;;;;;5033636;28;20234;-71
2022/02/13 06:20:43;;;;;;;22.92;21.60;;;2.20;84.60;;;;;;5033293;28;20642;-71
2022/02/13 06:23:11;;;;;;;24.52;22.92;;;2.30;84.40;;;;;;5034038;28;20214;-71
2022/02/13 06:25:39;;;;;;;24.67;23.17;;;2.40;83.50;;;;;;5033307;28;20292;-71
2022/02/13 06:28:07;;;;;;;25.20;23.27;;;2.40;82.70;;;;;;5033579;28;20263;-70
2022/02/13 06:30:34;;;;;;;27.85;25.70;;;2.40;83.50;;;;;;5033077;28;20302;-71
2022/02/13 06:33:03;;;;;;;26.00;23.90;;;2.60;81.60;;;;;;5033820;28;20289;-71
2022/02/13 06:35:30;;;;;;;25.45;23.67;;;2.60;80.70;;;;;;5033455;28;20203;-71
2022/02/13 06:37:57;;;;;;;25.65;24.00;;;2.70;80.40;;;;;;5033326;28;20195;-71
2022/02/13 06:40:24;;;;;;;27.35;25.35;;;2.80;79.80;;;;;;5032889;28;20291;-71
2022/02/13 06:42:52;;;;;;;25.10;23.17;;;2.90;79.40;;;;;;5033465;28;20196;-71
2022/02/13 06:45:19;;;;;;;25.58;23.88;;;2.90;79.90;;;;;;5032990;28;20240;-71
2022/02/13 06:47:46;;;;;;;26.35;24.45;;;2.90;79.70;;;;;;5033351;28;20680;-71
2022/02/13 06:50:13;;;;;;;26.55;24.85;;;2.90;79.50;;;;;;5032872;28;20516;-71
2022/02/13 06:52:40;;;;;;;24.95;23.30;;;3.00;79.30;;;;;;5033146;28;20254;-71
2022/02/13 06:55:08;;;;;;;26.42;24.70;;;3.00;79.10;;;;;;5032987;28;20735;-71
2022/02/13 06:57:35;;;;;;;25.73;24.05;;;3.10;79.30;;;;;;5032940;28;20283;-71
2022/02/13 07:00:03;;;;;;;25.50;23.90;;;3.10;78.70;;;;;;5032623;28;20209;-72
2022/02/13 07:02:30;;;;;;;26.25;24.55;;;3.20;79.30;;;;;;5033031;28;20299;-71
2022/02/13 07:04:57;;;;;;;25.45;23.85;;;3.10;79.50;;;;;;5032881;28;20284;-71
2022/02/13 07:07:24;;;;;;;25.05;23.35;;;3.20;80.20;;;;;;5032626;28;20219;-71
2022/02/13 07:09:51;;;;;;;26.10;24.25;;;3.20;80.30;;;;;;5032676;28;20204;-71
2022/02/13 07:12:18;;;;;;;26.15;24.35;;;3.30;79.00;;;;;;5032524;28;20260;-71
2022/02/13 07:14:46;;;;;;;25.75;23.90;;;3.40;78.90;;;;;;5032723;28;20218;-71
2022/02/13 07:17:15;;;;;;;26.70;24.90;;;3.40;79.00;;;;;;5032962;28;20201;-71
2022/02/13 07:19:42;;;;;;;25.85;24.02;;;3.40;80.00;;;;;;5032426;28;20726;-71
2022/02/13 07:22:09;;;;;;;25.33;23.25;;;3.40;78.90;;;;;;5032391;28;20583;-71
2022/02/13 07:24:37;;;;;;;28.80;26.30;;;3.40;78.80;;;;;;5032380;28;20200;-72
2022/02/13 07:27:07;;;;;;;25.80;24.10;;;3.50;79.10;;;;;;5032418;28;20226;-71
2022/02/13 07:29:34;;;;;;;27.13;25.13;;;3.60;77.70;;;;;;5032190;28;20209;-71
2022/02/13 07:32:01;;;;;;;28.23;26.15;;;3.70;78.00;;;;;;5032619;28;20218;-71
2022/02/13 07:34:30;;;;;;;25.60;23.88;;;3.70;77.50;;;;;;5032495;28;20294;-72
2022/02/13 07:37:01;;;;;;;25.15;23.50;;;3.70;78.20;;;;;;5032476;28;20632;-71
2022/02/13 07:39:28;;;;;;;27.00;25.10;;;3.80;77.80;;;;;;5032100;28;20210;-71
2022/02/13 07:41:58;;;;;;;27.92;25.80;;;3.90;77.60;;;;;;5032282;28;20222;-71
2022/02/13 07:44:26;;;;;;;25.92;24.27;;;3.90;77.30;;;;;;5032340;28;20226;-71
2022/02/13 07:46:54;;;;;;;27.08;25.23;;;4.00;76.90;;;;;;5032362;28;20322;-71
2022/02/13 07:49:23;;;;;;;25.23;23.52;;;4.10;77.20;;;;;;5032139;28;20630;-71
2022/02/13 07:51:51;;;;;;;23.98;22.58;;;4.20;76.60;;;;;;5032286;28;20255;-71
2022/02/13 07:54:18;;;;;;;26.90;25.20;;;4.20;76.40;;;;;;5032214;28;20209;-71
2022/02/13 07:56:45;;;;;;;26.75;24.88;;;4.40;75.80;;;;;;5032326;28;20291;-71
2022/02/13 07:59:12;;;;;;;25.98;24.27;;;4.50;75.30;;;;;;5032206;28;20709;-71
2022/02/13 08:01:39;;;;;;;25.52;24.02;;;4.60;74.80;;;;;;5032139;28;20262;-72
2022/02/13 08:04:06;;;;;;;26.27;24.48;;;4.60;74.50;;;;;;5032255;28;20281;-72
2022/02/13 08:06:33;;;;;;;26.42;24.73;;;4.70;74.60;;;;;;5032031;28;20258;-72
2022/02/13 08:09:01;;;;;;;25.23;23.33;;;4.80;74.50;;;;;;5032172;28;20293;-72
2022/02/13 08:11:28;;;;;;;27.23;24.92;;;4.90;74.80;;;;;;5031934;28;20224;-72
2022/02/13 08:13:56;;;;;;;26.05;23.80;;;4.90;74.70;;;;;;5032075;28;20204;-72
2022/02/13 08:16:23;;;;;;;24.75;23.20;;;5.00;74.90;;;;;;5032326;28;20201;-72
2022/02/13 08:18:50;;;;;;;26.52;24.83;;;5.00;74.80;;;;;;5032096;28;20284;-72
2022/02/13 08:21:17;;;;;;;26.15;24.25;;;5.10;74.80;;;;;;5031732;28;20570;-72
2022/02/13 08:23:47;;;;;;;26.70;24.50;;;5.20;74.10;;;;;;5032165;28;20656;-72
2022/02/13 08:26:17;;;;;;;26.98;25.23;;;5.30;73.60;;;;;;5031853;28;20690;-72
2022/02/13 08:28:44;;;;;;;25.25;23.55;;;5.40;73.10;;;;;;5032095;28;20196;-72
2022/02/13 08:31:13;;;;;;;27.15;25.45;;;5.50;73.60;;;;;;5031657;28;20584;-72
2022/02/13 08:33:40;;;;;;;27.63;25.77;;;5.60;73.00;;;;;;5031894;28;20654;-72
2022/02/13 08:36:08;;;;;;;26.13;24.48;;;5.70;72.50;;;;;;5031990;28;20242;-72
2022/02/13 08:38:38;;;;;;;26.55;24.52;;;5.70;72.10;;;;;;5033219;28;20196;-72
2022/02/13 08:41:07;;;;;;;25.90;24.13;;;5.80;72.70;;;;;;5035399;28;20723;-72
2022/02/13 08:43:36;;;;;;;26.15;24.45;;;5.90;71.80;;;;;;5035504;28;20250;-72
2022/02/13 08:46:03;;;;;;;26.52;24.88;;;6.00;71.30;;;;;;5035416;28;20314;-72
2022/02/13 08:48:30;;;;;;;26.73;24.98;;;6.00;72.10;;;;;;5035343;28;20413;-72
2022/02/13 08:50:56;;;;;;;25.60;24.00;;;6.10;72.10;;;;;;5035096;28;20228;-72
2022/02/13 08:53:23;;;;;;;26.77;24.98;;;6.10;71.50;;;;;;5035305;28;20292;-72
2022/02/13 08:55:50;;;;;;;26.23;24.35;;;6.20;72.30;;;;;;5035272;28;20331;-72
2022/02/13 08:58:18;;;;;;;25.25;23.42;;;6.30;71.30;;;;;;5035168;28;20266;-72
2022/02/13 09:00:46;;;;;;;27.02;25.30;;;6.50;70.30;;;;;;5034902;28;20263;-72
2022/02/13 09:03:14;;;;;;;26.08;24.38;;;6.60;70.20;;;;;;5035146;28;20287;-71
2022/02/13 09:05:41;;;;;;;25.48;23.73;;;6.70;70.00;;;;;;5035033;28;20255;-72
2022/02/13 09:08:08;;;;;;;24.65;23.10;;;6.70;70.10;;;;;;5035023;28;20770;-71
2022/02/13 09:10:36;;;;;;;26.45;24.55;;;6.80;70.10;;;;;;5034647;28;20247;-72
2022/02/13 09:13:02;;;;;;;26.17;24.20;;;6.90;69.70;;;;;;5034986;28;20709;-72
2022/02/13 09:15:30;;;;;;;24.25;22.70;;;7.00;69.80;;;;;;5034883;28;20338;-71
2022/02/13 09:17:58;;;;;;;24.25;22.67;;;7.10;69.70;;;;;;5034781;28;20292;-72
2022/02/13 09:20:26;;;;;;;26.65;24.63;;;7.20;69.90;;;;;;5034424;28;20763;-72
2022/02/13 09:22:53;;;;;;;26.08;24.27;;;7.30;69.00;;;;;;5034720;28;20201;-72
2022/02/13 09:25:20;;;;;;;26.73;24.70;;;7.40;69.70;;;;;;5034685;28;20680;-72
2022/02/13 09:27:47;;;;;;;27.08;25.20;;;7.40;70.30;;;;;;5034436;28;20639;-72
2022/02/13 09:30:15;;;;;;;26.40;24.77;;;7.60;68.70;;;;;;5034374;28;20830;-72
2022/02/13 09:32:41;;;;;;;25.85;24.25;;;7.70;68.30;;;;;;5034751;28;20285;-72
2022/02/13 09:35:11;;;;;;;27.20;25.42;;;7.70;68.50;;;;;;5034574;28;20235;-72
2022/02/13 09:37:38;;;;;;;26.20;24.17;;;7.80;68.70;;;;;;5034504;28;20243;-72
2022/02/13 09:40:06;;;;;;;27.70;25.45;;;7.90;68.40;;;;;;5034093;28;20293;-72
2022/02/13 09:42:33;;;;;;;26.55;24.55;;;8.00;67.60;;;;;;5034512;28;20225;-72
2022/02/13 09:45:00;;;;;;;28.30;26.15;;;8.10;67.40;;;;;;5034316;28;20197;-72
2022/02/13 09:47:28;;;;;;;28.38;26.27;;;8.10;67.20;;;;;;5034520;28;20256;-72
2022/02/13 09:49:55;;;;;;;28.30;26.20;;;8.10;67.10;;;;;;5033350;28;20200;-72
2022/02/13 09:52:24;;;;;;;27.52;25.65;;;8.20;67.40;;;;;;5034332;28;20220;-72
2022/02/13 09:54:51;;;;;;;29.80;27.48;;;8.30;66.90;;;;;;5033962;28;20295;-72
2022/02/13 10:00:15;;;;;;;27.08;25.17;;;8.40;67.70;;;;;;4992420;28;20265;-72
2022/02/13 10:02:43;;;;;;;27.27;25.38;;;8.50;66.60;;;;;;5023996;28;20687;-72
2022/02/13 10:05:12;;;;;;;26.95;25.10;;;8.60;66.40;;;;;;5033849;28;20204;-72
2022/02/13 10:07:41;;;;;;;27.08;25.15;;;8.80;66.20;;;;;;5033791;28;20329;-72
2022/02/13 10:10:10;;;;;;;26.98;25.17;;;8.90;65.50;;;;;;5033610;28;20197;-72
2022/02/13 10:12:42;;;;;;;27.63;25.73;;;8.90;65.50;;;;;;5033816;28;20610;-72
2022/02/13 10:15:39;;;;;;;26.35;24.45;;;9.00;65.30;;;;;;5034042;28;20197;-72
2022/02/13 10:18:08;;;;;;;26.70;25.00;;;9.00;65.20;;;;;;4972703;28;20206;-72
2022/02/13 10:20:38;;;;;;;27.58;25.23;;;9.20;64.60;;;;;;5019626;28;20219;-72
2022/02/13 10:23:08;;;;;;;27.60;25.80;;;9.20;64.60;;;;;;5033762;28;20210;-72
2022/02/13 10:25:36;;;;;;;27.25;25.27;;;9.30;65.00;;;;;;5033580;28;20202;-72
2022/02/13 10:28:10;;;;;;;28.27;26.02;;;9.30;64.60;;;;;;5033192;28;20221;-72
2022/02/13 10:30:40;;;;;;;29.45;27.55;;;9.40;63.80;;;;;;5033300;28;20213;-72
2022/02/13 10:33:17;;;;;;;27.00;25.10;;;9.50;64.40;;;;;;5033364;28;20197;-72
2022/02/13 10:36:06;;;;;;;26.98;25.08;;;9.60;63.90;;;;;;5033331;28;20964;-72
2022/02/13 10:38:37;;;;;;;28.15;25.90;;;9.60;63.80;;;;;;5033185;28;20198;-72
2022/02/13 10:41:15;;;;;;;28.75;26.25;;;9.70;63.80;;;;;;5033051;28;20215;-72
2022/02/13 10:43:57;;;;;;;28.90;26.90;;;9.80;64.50;;;;;;5033113;28;20279;-72
2022/02/13 10:46:25;;;;;;;27.67;25.57;;;9.90;63.80;;;;;;5033021;28;20461;-72
2022/02/13 10:48:52;;;;;;;27.47;25.50;;;10.00;63.00;;;;;;5033054;28;20460;-72
2022/02/13 10:51:21;;;;;;;28.20;26.00;;;10.00;63.00;;;;;;5032899;28;20533;-72
2022/02/13 10:53:50;;;;;;;27.20;25.17;;;10.10;62.80;;;;;;5033008;28;20535;-73
2022/02/13 10:56:17;;;;;;;27.30;25.53;;;10.20;61.90;;;;;;5033034;28;20448;-72
2022/02/13 10:58:44;;;;;;;29.17;27.07;;;10.30;61.60;;;;;;5032928;28;20456;-72
2022/02/13 11:01:15;;;;;;;29.17;26.97;;;10.30;61.80;;;;;;5032096;28;20485;-72
2022/02/13 11:03:42;;;;;;;28.80;26.60;;;10.40;61.80;;;;;;5032365;28;20560;-72
2022/02/13 11:06:09;;;;;;;28.27;26.17;;;10.40;61.60;;;;;;5032807;28;20903;-72
2022/02/13 11:08:43;;;;;;;27.80;25.77;;;10.40;61.80;;;;;;5032702;28;20806;-72
2022/02/13 11:11:14;;;;;;;27.07;25.20;;;10.50;61.50;;;;;;5032597;28;20475;-72
2022/02/13 11:13:42;;;;;;;29.10;26.83;;;10.60;61.10;;;;;;5032591;28;20448;-72
2022/02/13 11:16:31;;;;;;;27.13;25.33;;;10.60;61.00;;;;;;5032631;28;20463;-72
2022/02/13 11:19:03;;;;;;;27.30;25.37;;;10.60;61.10;;;;;;5032602;28;20493;-72
2022/02/13 11:21:34;;;;;;;26.67;24.70;;;10.70;60.80;;;;;;5032150;28;20469;-72
2022/02/13 11:24:03;;;;;;;28.13;26.13;;;10.80;60.30;;;;;;5032596;28;20461;-72
2022/02/13 11:26:43;;;;;;;27.80;25.60;;;10.80;59.90;;;;;;5032168;28;20503;-72
2022/02/13 11:29:12;;;;;;;29.60;27.50;;;10.90;59.80;;;;;;5032411;28;20552;-72
2022/02/13 11:31:42;;;;;;;27.87;25.43;;;10.90;59.70;;;;;;5032303;28;20550;-72
2022/02/13 11:34:13;;;;;;;27.43;25.37;;;11.00;59.30;;;;;;5032743;28;20476;-72
2022/02/13 11:36:46;;;;;;;27.70;25.70;;;11.00;59.30;;;;;;5032272;28;20551;-72
2022/02/13 11:39:33;;;;;;;26.83;24.80;;;11.00;59.00;;;;;;5032472;28;20472;-72
2022/02/13 11:42:02;;;;;;;24.60;22.87;;;11.10;57.60;;;;;;5032592;28;20472;-72
2022/02/13 11:44:49;;;;;;;25.10;23.40;;;11.20;56.30;;;;;;5032497;28;20452;-73
2022/02/13 11:47:38;;;;;;;26.20;24.37;;;11.30;55.90;;;;;;5032241;28;20991;-73
2022/02/13 11:50:25;;;;;;;25.47;23.87;;;11.30;55.10;;;;;;5032170;28;20454;-72
2022/02/13 11:53:06;;;;;;;27.27;25.67;;;11.30;55.10;;;;;;5032410;28;20987;-73
2022/02/13 11:55:36;;;;;;;24.03;22.53;;;11.50;54.40;;;;;;5032115;28;20814;-72
2022/02/13 11:58:08;;;;;;;25.83;24.23;;;11.50;53.60;;;;;;5032269;28;21025;-73
2022/02/13 12:00:40;;;;;;;26.27;24.40;;;11.60;53.30;;;;;;5032037;28;20485;-72
2022/02/13 12:03:19;;;;;;;24.07;22.63;;;11.70;53.50;;;;;;5032341;28;20543;-73
2022/02/13 12:05:52;;;;;;;25.40;23.70;;;11.70;52.90;;;;;;5032148;28;20528;-73
2022/02/13 12:08:23;;;;;;;24.63;22.93;;;11.70;52.80;;;;;;5032139;28;20818;-73
2022/02/13 12:11:02;;;;;;;25.33;23.60;;;11.80;52.50;;;;;;5031928;28;20476;-73
2022/02/13 12:13:30;;;;;;;23.83;22.40;;;11.90;52.80;;;;;;5033823;28;20815;-73
2022/02/13 12:15:59;;;;;;;24.37;22.77;;;11.90;52.20;;;;;;5036007;28;20959;-73
2022/02/13 12:18:27;;;;;;;23.93;22.43;;;11.90;52.40;;;;;;5035872;28;20481;-73
2022/02/13 12:20:58;;;;;;;24.70;23.00;;;12.00;52.30;;;;;;5035483;28;20554;-73
2022/02/13 12:23:25;;;;;;;24.43;22.73;;;12.10;51.90;;;;;;5036116;28;20537;-73
2022/02/13 12:25:53;;;;;;;24.30;22.70;;;12.20;51.90;;;;;;5035597;28;20543;-73
2022/02/13 12:28:20;;;;;;;23.60;22.20;;;12.10;51.50;;;;;;5035646;28;20484;-73
2022/02/13 12:30:51;;;;;;;24.60;23.20;;;12.20;51.10;;;;;;5035431;28;20469;-73
2022/02/13 12:33:22;;;;;;;24.23;22.63;;;12.20;51.30;;;;;;5035843;28;20456;-73
2022/02/13 12:35:50;;;;;;;24.70;23.20;;;12.30;50.80;;;;;;5035685;28;20492;-73
2022/02/13 12:38:17;;;;;;;24.27;22.87;;;12.40;50.90;;;;;;5035537;28;20534;-73
2022/02/13 12:40:45;;;;;;;25.03;23.53;;;12.40;50.70;;;;;;5035203;28;20487;-73
2022/02/13 12:43:17;;;;;;;24.33;22.90;;;12.50;50.80;;;;;;5035553;28;20471;-73
2022/02/13 12:45:46;;;;;;;25.10;23.50;;;12.50;50.40;;;;;;5035547;28;20533;-72